sensor_id;sensor_type;location;lat;lon;timestamp;pressure;altitude;pressure_sealevel;temperature;humidity
66880;BME280;53789;51.392;10.234;2023-07-16T00:00:18;97711.63;;;20.15;81.50
66880;BME280;53789;51.392;10.234;2023-07-16T00:00:38;97712.41;;;20.15;81.63
66880;BME280;53789;51.392;10.234;2023-07-16T00:00:58;97705.25;;;20.14;81.81
66880;BME280;53789;51.392;10.234;2023-07-16T00:01:19;97712.78;;;20.14;81.82
66880;BME280;53789;51.392;10.234;2023-07-16T00:01:39;97714.00;;;20.13;82.49
66880;BME280;53789;51.392;10.234;2023-07-16T00:01:59;97710.38;;;20.12;81.86
66880;BME280;53789;51.392;10.234;2023-07-16T00:02:20;97718.75;;;20.12;82.25
66880;BME280;53789;51.392;10.234;2023-07-16T00:02:40;97717.19;;;20.11;82.19
66880;BME280;53789;51.392;10.234;2023-07-16T00:03:00;97717.19;;;20.11;81.95
66880;BME280;53789;51.392;10.234;2023-07-16T00:03:21;97733.94;;;20.11;81.65
66880;BME280;53789;51.392;10.234;2023-07-16T00:03:41;97734.72;;;20.12;81.59
66880;BME280;53789;51.392;10.234;2023-07-16T00:04:01;97742.28;;;20.11;81.96
66880;BME280;53789;51.392;10.234;2023-07-16T00:04:22;97743.47;;;20.10;81.83
66880;BME280;53789;51.392;10.234;2023-07-16T00:04:42;97743.47;;;20.10;82.13
66880;BME280;53789;51.392;10.234;2023-07-16T00:05:02;97745.47;;;20.10;82.36
66880;BME280;53789;51.392;10.234;2023-07-16T00:05:23;97754.63;;;20.10;82.03
66880;BME280;53789;51.392;10.234;2023-07-16T00:05:43;97750.22;;;20.09;82.44
66880;BME280;53789;51.392;10.234;2023-07-16T00:06:03;97753.03;;;20.09;82.25
66880;BME280;53789;51.392;10.234;2023-07-16T00:06:24;97754.59;;;20.06;82.39
66880;BME280;53789;51.392;10.234;2023-07-16T00:06:45;97753.78;;;20.06;82.47
66880;BME280;53789;51.392;10.234;2023-07-16T00:07:06;97753.78;;;20.06;82.95
66880;BME280;53789;51.392;10.234;2023-07-16T00:07:26;97752.19;;;20.05;82.62
66880;BME280;53789;51.392;10.234;2023-07-16T00:07:46;97766.50;;;20.03;83.05
66880;BME280;53789;51.392;10.234;2023-07-16T00:08:07;97765.72;;;20.03;82.92
66880;BME280;53789;51.392;10.234;2023-07-16T00:08:27;97772.09;;;20.03;82.71
66880;BME280;53789;51.392;10.234;2023-07-16T00:08:47;97766.91;;;20.02;82.79
66880;BME280;53789;51.392;10.234;2023-07-16T00:09:07;97769.31;;;20.03;82.89
66880;BME280;53789;51.392;10.234;2023-07-16T00:09:28;97761.31;;;20.02;82.99
66880;BME280;53789;51.392;10.234;2023-07-16T00:09:48;97768.09;;;20.01;83.17
66880;BME280;53789;51.392;10.234;2023-07-16T00:10:09;97772.84;;;20.00;83.40
66880;BME280;53789;51.392;10.234;2023-07-16T00:10:29;97772.06;;;20.00;83.95
66880;BME280;53789;51.392;10.234;2023-07-16T00:10:50;97770.44;;;19.99;83.35
66880;BME280;53789;51.392;10.234;2023-07-16T00:11:10;97770.44;;;19.99;83.17
66880;BME280;53789;51.392;10.234;2023-07-16T00:11:30;97767.66;;;19.99;83.39
66880;BME280;53789;51.392;10.234;2023-07-16T00:11:50;97774.44;;;19.98;83.33
66880;BME280;53789;51.392;10.234;2023-07-16T00:12:11;97774.81;;;19.96;83.28
66880;BME280;53789;51.392;10.234;2023-07-16T00:12:31;97775.63;;;19.97;83.22
66880;BME280;53789;51.392;10.234;2023-07-16T00:12:51;97772.03;;;19.96;83.38
66880;BME280;53789;51.392;10.234;2023-07-16T00:13:12;97775.19;;;19.95;83.48
66880;BME280;53789;51.392;10.234;2023-07-16T00:13:32;97782.38;;;19.96;83.08
66880;BME280;53789;51.392;10.234;2023-07-16T00:13:52;97777.97;;;19.95;83.53
66880;BME280;53789;51.392;10.234;2023-07-16T00:14:13;97776.78;;;19.96;83.69
66880;BME280;53789;51.392;10.234;2023-07-16T00:14:33;97774.00;;;19.96;83.18
66880;BME280;53789;51.392;10.234;2023-07-16T00:14:53;97779.59;;;19.96;83.15
66880;BME280;53789;51.392;10.234;2023-07-16T00:15:13;97778.41;;;19.97;83.13
66880;BME280;53789;51.392;10.234;2023-07-16T00:15:34;97783.63;;;19.98;82.90
66880;BME280;53789;51.392;10.234;2023-07-16T00:15:54;97787.56;;;19.97;83.17
66880;BME280;53789;51.392;10.234;2023-07-16T00:16:14;97792.78;;;19.99;83.25
66880;BME280;53789;51.392;10.234;2023-07-16T00:16:35;97790.00;;;19.99;83.11
66880;BME280;53789;51.392;10.234;2023-07-16T00:16:55;97790.81;;;19.99;83.19
66880;BME280;53789;51.392;10.234;2023-07-16T00:17:15;97782.00;;;19.97;83.43
66880;BME280;53789;51.392;10.234;2023-07-16T00:17:36;97791.56;;;19.96;83.91
66880;BME280;53789;51.392;10.234;2023-07-16T00:17:56;97787.16;;;19.95;83.84
66880;BME280;53789;51.392;10.234;2023-07-16T00:18:16;97783.19;;;19.96;84.21
66880;BME280;53789;51.392;10.234;2023-07-16T00:18:37;97783.19;;;19.96;84.04
66880;BME280;53789;51.392;10.234;2023-07-16T00:18:57;97786.00;;;19.96;83.89
66880;BME280;53789;51.392;10.234;2023-07-16T00:19:17;97782.00;;;19.97;83.94
66880;BME280;53789;51.392;10.234;2023-07-16T00:19:38;97782.81;;;19.98;83.68
66880;BME280;53789;51.392;10.234;2023-07-16T00:19:58;97780.03;;;19.98;83.46
66880;BME280;53789;51.392;10.234;2023-07-16T00:20:18;97780.81;;;19.98;83.32
66880;BME280;53789;51.392;10.234;2023-07-16T00:20:39;97784.78;;;19.97;83.66
66880;BME280;53789;51.392;10.234;2023-07-16T00:20:59;97782.38;;;19.96;83.48
66880;BME280;53789;51.392;10.234;2023-07-16T00:21:19;97779.56;;;19.92;83.61
66880;BME280;53789;51.392;10.234;2023-07-16T00:21:40;97775.56;;;19.93;83.03
66880;BME280;53789;51.392;10.234;2023-07-16T00:22:00;97773.59;;;19.94;83.31
66880;BME280;53789;51.392;10.234;2023-07-16T00:22:20;97776.75;;;19.92;83.30
66880;BME280;53789;51.392;10.234;2023-07-16T00:22:41;97779.56;;;19.92;83.89
66880;BME280;53789;51.392;10.234;2023-07-16T00:23:01;97767.94;;;19.90;83.20
66880;BME280;53789;51.392;10.234;2023-07-16T00:23:21;97775.16;;;19.91;84.41
66880;BME280;53789;51.392;10.234;2023-07-16T00:23:41;97781.53;;;19.92;84.21
66880;BME280;53789;51.392;10.234;2023-07-16T00:24:02;97780.72;;;19.91;84.47
66880;BME280;53789;51.392;10.234;2023-07-16T00:24:22;97781.53;;;19.92;84.37
66880;BME280;53789;51.392;10.234;2023-07-16T00:24:43;97792.69;;;19.92;84.15
66880;BME280;53789;51.392;10.234;2023-07-16T00:25:03;97786.31;;;19.91;83.84
66880;BME280;53789;51.392;10.234;2023-07-16T00:25:24;97791.91;;;19.91;83.97
66880;BME280;53789;51.392;10.234;2023-07-16T00:25:44;97793.06;;;19.90;83.91
66880;BME280;53789;51.392;10.234;2023-07-16T00:26:04;97789.47;;;19.90;84.13
66880;BME280;53789;51.392;10.234;2023-07-16T00:26:24;97792.28;;;19.90;83.95
66880;BME280;53789;51.392;10.234;2023-07-16T00:26:45;97791.47;;;19.89;83.78
66880;BME280;53789;51.392;10.234;2023-07-16T00:27:05;97795.84;;;19.90;83.93
66880;BME280;53789;51.392;10.234;2023-07-16T00:27:25;97795.84;;;19.90;83.75
66880;BME280;53789;51.392;10.234;2023-07-16T00:27:46;97792.28;;;19.90;84.30
66880;BME280;53789;51.392;10.234;2023-07-16T00:28:06;97795.06;;;19.90;84.03
66880;BME280;53789;51.392;10.234;2023-07-16T00:28:26;97803.44;;;19.90;84.59
66880;BME280;53789;51.392;10.234;2023-07-16T00:28:47;97791.47;;;19.89;84.88
66880;BME280;53789;51.392;10.234;2023-07-16T00:29:07;97786.28;;;19.87;84.77
66880;BME280;53789;51.392;10.234;2023-07-16T00:29:27;97787.47;;;19.86;84.85
66880;BME280;53789;51.392;10.234;2023-07-16T00:29:48;97783.06;;;19.85;85.06
66880;BME280;53789;51.392;10.234;2023-07-16T00:30:08;97779.09;;;19.86;84.70
66880;BME280;53789;51.392;10.234;2023-07-16T00:30:29;97785.47;;;19.87;84.58
66880;BME280;53789;51.392;10.234;2023-07-16T00:30:49;97781.88;;;19.86;84.68
66880;BME280;53789;51.392;10.234;2023-07-16T00:31:10;97788.25;;;19.87;84.81
66880;BME280;53789;51.392;10.234;2023-07-16T00:31:30;97787.88;;;19.88;84.31
66880;BME280;53789;51.392;10.234;2023-07-16T00:31:50;97794.28;;;19.89;84.37
66880;BME280;53789;51.392;10.234;2023-07-16T00:32:12;97787.88;;;19.88;84.71
66880;BME280;53789;51.392;10.234;2023-07-16T00:32:32;97792.28;;;19.90;84.81
66880;BME280;53789;51.392;10.234;2023-07-16T00:32:52;97792.28;;;19.90;84.24
66880;BME280;53789;51.392;10.234;2023-07-16T00:33:12;97792.28;;;19.90;83.89
66880;BME280;53789;51.392;10.234;2023-07-16T00:33:33;97792.28;;;19.90;84.76
66880;BME280;53789;51.392;10.234;2023-07-16T00:33:53;97800.66;;;19.90;84.46
66880;BME280;53789;51.392;10.234;2023-07-16T00:34:14;97791.91;;;19.91;84.40
66880;BME280;53789;51.392;10.234;2023-07-16T00:34:34;97798.28;;;19.92;84.47
66880;BME280;53789;51.392;10.234;2023-07-16T00:34:54;97787.50;;;19.90;84.38
66880;BME280;53789;51.392;10.234;2023-07-16T00:35:14;97793.50;;;19.92;84.58
66880;BME280;53789;51.392;10.234;2023-07-16T00:35:35;97794.69;;;19.91;84.46
66880;BME280;53789;51.392;10.234;2023-07-16T00:35:55;97795.06;;;19.90;84.46
66880;BME280;53789;51.392;10.234;2023-07-16T00:36:15;97789.06;;;19.87;84.63
66880;BME280;53789;51.392;10.234;2023-07-16T00:36:36;97785.47;;;19.87;84.57
66880;BME280;53789;51.392;10.234;2023-07-16T00:36:56;97784.66;;;19.86;84.98
66880;BME280;53789;51.392;10.234;2023-07-16T00:37:16;97789.44;;;19.86;84.79
66880;BME280;53789;51.392;10.234;2023-07-16T00:37:37;97787.47;;;19.86;84.86
66880;BME280;53789;51.392;10.234;2023-07-16T00:37:57;97784.25;;;19.84;84.65
66880;BME280;53789;51.392;10.234;2023-07-16T00:38:18;97779.84;;;19.83;85.23
66880;BME280;53789;51.392;10.234;2023-07-16T00:38:38;97779.84;;;19.83;85.21
66880;BME280;53789;51.392;10.234;2023-07-16T00:38:58;97769.84;;;19.82;84.63
66880;BME280;53789;51.392;10.234;2023-07-16T00:39:19;97765.44;;;19.81;84.81
66880;BME280;53789;51.392;10.234;2023-07-16T00:39:39;97764.28;;;19.82;85.06
66880;BME280;53789;51.392;10.234;2023-07-16T00:39:59;97761.50;;;19.82;85.18
66880;BME280;53789;51.392;10.234;2023-07-16T00:40:19;97759.50;;;19.83;85.32
66880;BME280;53789;51.392;10.234;2023-07-16T00:40:40;97753.13;;;19.82;85.18
66880;BME280;53789;51.392;10.234;2023-07-16T00:41:00;97751.13;;;19.83;85.14
66880;BME280;53789;51.392;10.234;2023-07-16T00:41:20;97739.97;;;19.83;85.78
66880;BME280;53789;51.392;10.234;2023-07-16T00:41:41;97746.38;;;19.83;84.84
66880;BME280;53789;51.392;10.234;2023-07-16T00:42:01;97737.16;;;19.83;85.02
66880;BME280;53789;51.392;10.234;2023-07-16T00:42:21;97747.97;;;19.84;85.02
66880;BME280;53789;51.392;10.234;2023-07-16T00:42:42;97738.78;;;19.84;85.26
66880;BME280;53789;51.392;10.234;2023-07-16T00:43:02;97748.78;;;19.85;85.11
66880;BME280;53789;51.392;10.234;2023-07-16T00:43:22;97745.19;;;19.84;84.93
66880;BME280;53789;51.392;10.234;2023-07-16T00:43:43;97744.81;;;19.86;84.90
66880;BME280;53789;51.392;10.234;2023-07-16T00:44:03;97743.97;;;19.85;84.67
66880;BME280;53789;51.392;10.234;2023-07-16T00:44:23;97741.19;;;19.85;84.61
66880;BME280;53789;51.392;10.234;2023-07-16T00:44:44;97733.66;;;19.86;84.22
66880;BME280;53789;51.392;10.234;2023-07-16T00:45:11;97731.25;;;19.88;84.68
66880;BME280;53789;51.392;10.234;2023-07-16T00:45:32;97734.06;;;19.88;84.55
66880;BME280;53789;51.392;10.234;2023-07-16T00:45:53;97723.69;;;19.88;84.56
66880;BME280;53789;51.392;10.234;2023-07-16T00:46:13;97718.94;;;19.89;84.64
66880;BME280;53789;51.392;10.234;2023-07-16T00:46:33;97713.34;;;19.89;84.84
66880;BME280;53789;51.392;10.234;2023-07-16T00:46:54;97708.56;;;19.90;84.94
66880;BME280;53789;51.392;10.234;2023-07-16T00:47:14;97716.53;;;19.91;84.56
66880;BME280;53789;51.392;10.234;2023-07-16T00:47:35;97713.38;;;19.93;84.31
66880;BME280;53789;51.392;10.234;2023-07-16T00:47:55;97710.59;;;19.93;84.68
66880;BME280;53789;51.392;10.234;2023-07-16T00:48:15;97713.38;;;19.93;84.58
66880;BME280;53789;51.392;10.234;2023-07-16T00:48:36;97714.56;;;19.92;84.35
66880;BME280;53789;51.392;10.234;2023-07-16T00:48:57;97710.56;;;19.89;84.31
66880;BME280;53789;51.392;10.234;2023-07-16T00:49:17;97714.13;;;19.90;84.40
66880;BME280;53789;51.392;10.234;2023-07-16T00:49:38;97714.13;;;19.90;84.42
66880;BME280;53789;51.392;10.234;2023-07-16T00:49:59;97719.34;;;19.91;84.53
66880;BME280;53789;51.392;10.234;2023-07-16T00:50:19;97720.13;;;19.92;83.91
66880;BME280;53789;51.392;10.234;2023-07-16T00:50:41;97724.53;;;19.93;84.04
66880;BME280;53789;51.392;10.234;2023-07-16T00:51:02;97725.34;;;19.93;84.54
66880;BME280;53789;51.392;10.234;2023-07-16T00:51:25;97728.13;;;19.93;84.69
66880;BME280;53789;51.392;10.234;2023-07-16T00:51:46;97726.53;;;19.92;84.02
66880;BME280;53789;51.392;10.234;2023-07-16T00:52:12;97735.69;;;19.93;84.29
66880;BME280;53789;51.392;10.234;2023-07-16T00:52:34;97734.53;;;19.94;84.02
66880;BME280;53789;51.392;10.234;2023-07-16T00:52:54;97736.09;;;19.95;84.19
66880;BME280;53789;51.392;10.234;2023-07-16T00:53:15;97735.69;;;19.93;84.29
66880;BME280;53789;51.392;10.234;2023-07-16T00:53:36;97734.53;;;19.94;84.68
66880;BME280;53789;51.392;10.234;2023-07-16T00:53:56;97734.53;;;19.94;84.91
66880;BME280;53789;51.392;10.234;2023-07-16T00:54:17;97736.09;;;19.95;84.59
66880;BME280;53789;51.392;10.234;2023-07-16T00:54:37;97736.94;;;19.95;84.67
66880;BME280;53789;51.392;10.234;2023-07-16T00:54:58;97736.09;;;19.95;84.64
66880;BME280;53789;51.392;10.234;2023-07-16T00:55:19;97743.31;;;19.96;84.54
66880;BME280;53789;51.392;10.234;2023-07-16T00:55:39;97742.13;;;19.97;84.24
66880;BME280;53789;51.392;10.234;2023-07-16T00:56:00;97736.94;;;19.95;84.44
66880;BME280;53789;51.392;10.234;2023-07-16T00:56:21;97738.53;;;19.96;84.30
66880;BME280;53789;51.392;10.234;2023-07-16T00:56:42;97736.97;;;19.99;83.69
66880;BME280;53789;51.392;10.234;2023-07-16T00:57:02;97742.53;;;19.99;83.67
66880;BME280;53789;51.392;10.234;2023-07-16T00:57:23;97742.53;;;19.99;83.97
66880;BME280;53789;51.392;10.234;2023-07-16T00:57:44;97751.75;;;19.99;83.93
66880;BME280;53789;51.392;10.234;2023-07-16T00:58:07;97756.13;;;20.00;84.05
66880;BME280;53789;51.392;10.234;2023-07-16T00:58:27;97746.94;;;20.00;84.75
66880;BME280;53789;51.392;10.234;2023-07-16T00:58:47;97751.75;;;19.99;84.84
66880;BME280;53789;51.392;10.234;2023-07-16T00:59:08;97739.38;;;20.00;84.54
66880;BME280;53789;51.392;10.234;2023-07-16T00:59:28;97734.16;;;19.99;84.78
66880;BME280;53789;51.392;10.234;2023-07-16T00:59:48;97733.00;;;20.00;84.71
66880;BME280;53789;51.392;10.234;2023-07-16T01:00:09;97735.00;;;19.99;84.51
66880;BME280;53789;51.392;10.234;2023-07-16T01:00:30;97733.38;;;19.98;84.56
66880;BME280;53789;51.392;10.234;2023-07-16T01:00:51;97738.53;;;19.96;84.46
66880;BME280;53789;51.392;10.234;2023-07-16T01:01:11;97733.75;;;19.97;84.90
66880;BME280;53789;51.392;10.234;2023-07-16T01:01:32;97732.59;;;19.98;84.35
66880;BME280;53789;51.392;10.234;2023-07-16T01:01:52;97738.97;;;19.98;83.78
66880;BME280;53789;51.392;10.234;2023-07-16T01:02:12;97738.16;;;19.98;84.59
66880;BME280;53789;51.392;10.234;2023-07-16T01:02:33;97731.38;;;19.99;84.28
66880;BME280;53789;51.392;10.234;2023-07-16T01:02:54;97718.63;;;19.98;84.08
66880;BME280;53789;51.392;10.234;2023-07-16T01:03:15;97723.00;;;19.99;84.32
66880;BME280;53789;51.392;10.234;2023-07-16T01:03:35;97735.78;;;20.00;83.86
66880;BME280;53789;51.392;10.234;2023-07-16T01:03:56;97748.94;;;19.99;84.38
66880;BME280;53789;51.392;10.234;2023-07-16T01:04:16;97756.09;;;19.97;84.58
66880;BME280;53789;51.392;10.234;2023-07-16T01:04:37;97762.84;;;19.96;84.66
66880;BME280;53789;51.392;10.234;2023-07-16T01:04:57;97750.06;;;19.95;84.82
66880;BME280;53789;51.392;10.234;2023-07-16T01:05:18;97750.06;;;19.95;85.02
66880;BME280;53789;51.392;10.234;2023-07-16T01:05:49;97747.28;;;19.95;85.13
66880;BME280;53789;51.392;10.234;2023-07-16T01:06:43;97762.84;;;19.96;85.08
66880;BME280;53789;51.392;10.234;2023-07-16T01:07:09;97767.63;;;19.95;85.08
66880;BME280;53789;51.392;10.234;2023-07-16T01:07:32;97757.63;;;19.94;84.85
66880;BME280;53789;51.392;10.234;2023-07-16T01:07:59;97742.06;;;19.93;84.96
66880;BME280;53789;51.392;10.234;2023-07-16T01:08:31;97734.91;;;19.92;85.46
66880;BME280;53789;51.392;10.234;2023-07-16T01:09:06;97757.22;;;19.92;85.12
66880;BME280;53789;51.392;10.234;2023-07-16T01:09:28;97742.47;;;19.92;85.58
66880;BME280;53789;51.392;10.234;2023-07-16T01:09:50;97744.44;;;19.91;85.22
66880;BME280;53789;51.392;10.234;2023-07-16T01:10:11;97745.63;;;19.90;85.23
66880;BME280;53789;51.392;10.234;2023-07-16T01:10:33;97742.03;;;19.90;84.96
66880;BME280;53789;51.392;10.234;2023-07-16T01:10:54;97731.25;;;19.88;84.92
66880;BME280;53789;51.392;10.234;2023-07-16T01:11:15;97735.22;;;19.87;84.96
66880;BME280;53789;51.392;10.234;2023-07-16T01:11:38;97729.25;;;19.85;85.65
66880;BME280;53789;51.392;10.234;2023-07-16T01:12:00;97733.59;;;19.82;85.21
66880;BME280;53789;51.392;10.234;2023-07-16T01:12:22;97736.38;;;19.82;85.61
66880;BME280;53789;51.392;10.234;2023-07-16T01:12:43;97743.94;;;19.82;85.86
66880;BME280;53789;51.392;10.234;2023-07-16T01:13:03;97728.38;;;19.81;85.93
66880;BME280;53789;51.392;10.234;2023-07-16T01:13:25;97726.00;;;19.83;85.18
66880;BME280;53789;51.392;10.234;2023-07-16T01:13:47;97727.22;;;19.82;85.24
66880;BME280;53789;51.392;10.234;2023-07-16T01:14:08;97729.19;;;19.81;85.69
66880;BME280;53789;51.392;10.234;2023-07-16T01:14:30;97737.94;;;19.80;85.83
66880;BME280;53789;51.392;10.234;2023-07-16T01:14:51;97735.91;;;19.77;86.10
66880;BME280;53789;51.392;10.234;2023-07-16T01:15:12;97733.13;;;19.77;86.32
66880;BME280;53789;51.392;10.234;2023-07-16T01:15:32;97740.69;;;19.76;85.77
66880;BME280;53789;51.392;10.234;2023-07-16T01:15:52;97743.09;;;19.78;85.82
66880;BME280;53789;51.392;10.234;2023-07-16T01:16:24;97751.06;;;19.76;86.05
66880;BME280;53789;51.392;10.234;2023-07-16T01:16:45;97740.28;;;19.74;85.94
66880;BME280;53789;51.392;10.234;2023-07-16T01:17:06;97745.88;;;19.74;85.99
66880;BME280;53789;51.392;10.234;2023-07-16T01:17:26;97747.81;;;19.74;85.70
66880;BME280;53789;51.392;10.234;2023-07-16T01:17:47;97754.22;;;19.74;85.59
66880;BME280;53789;51.392;10.234;2023-07-16T01:18:07;97752.22;;;19.75;85.45
66880;BME280;53789;51.392;10.234;2023-07-16T01:18:27;97754.59;;;19.73;85.87
66880;BME280;53789;51.392;10.234;2023-07-16T01:18:48;97756.97;;;19.70;85.81
66880;BME280;53789;51.392;10.234;2023-07-16T01:19:09;97761.75;;;19.70;85.74
66880;BME280;53789;51.392;10.234;2023-07-16T01:19:30;97762.53;;;19.70;86.09
66880;BME280;53789;51.392;10.234;2023-07-16T01:19:50;97764.16;;;19.72;86.15
66880;BME280;53789;51.392;10.234;2023-07-16T01:20:10;97764.16;;;19.72;85.96
66880;BME280;53789;51.392;10.234;2023-07-16T01:20:31;97767.75;;;19.72;86.30
66880;BME280;53789;51.392;10.234;2023-07-16T01:20:51;97771.69;;;19.71;86.63
66880;BME280;53789;51.392;10.234;2023-07-16T01:21:11;97774.13;;;19.73;86.30
66880;BME280;53789;51.392;10.234;2023-07-16T01:24:21;97745.03;;;19.74;85.53
66880;BME280;53789;51.392;10.234;2023-07-16T01:25:09;97744.63;;;19.72;85.96
66880;BME280;53789;51.392;10.234;2023-07-16T01:27:08;97738.22;;;19.71;85.86
66880;BME280;53789;51.392;10.234;2023-07-16T01:28:16;97718.69;;;19.71;85.73
66880;BME280;53789;51.392;10.234;2023-07-16T01:29:49;97702.78;;;19.72;85.47
66880;BME280;53789;51.392;10.234;2023-07-16T01:30:11;97705.56;;;19.72;85.88
66880;BME280;53789;51.392;10.234;2023-07-16T01:30:37;97709.16;;;19.72;85.91
66880;BME280;53789;51.392;10.234;2023-07-16T01:31:01;97717.53;;;19.72;86.05
66880;BME280;53789;51.392;10.234;2023-07-16T01:31:22;97711.16;;;19.72;86.51
66880;BME280;53789;51.392;10.234;2023-07-16T01:31:46;97710.31;;;19.71;86.09
66880;BME280;53789;51.392;10.234;2023-07-16T01:32:11;97701.97;;;19.71;85.79
66880;BME280;53789;51.392;10.234;2023-07-16T01:32:33;97719.91;;;19.70;85.62
66880;BME280;53789;51.392;10.234;2023-07-16T01:32:55;97719.53;;;19.72;85.74
66880;BME280;53789;51.392;10.234;2023-07-16T01:33:16;97724.66;;;19.69;86.26
66880;BME280;53789;51.392;10.234;2023-07-16T01:33:41;97728.66;;;19.68;86.45
66880;BME280;53789;51.392;10.234;2023-07-16T01:34:04;97728.66;;;19.68;86.65
66880;BME280;53789;51.392;10.234;2023-07-16T01:34:28;97720.56;;;19.63;86.38
66880;BME280;53789;51.392;10.234;2023-07-16T01:34:52;97716.59;;;19.64;86.23
66880;BME280;53789;51.392;10.234;2023-07-16T01:35:14;97724.97;;;19.64;86.45
66880;BME280;53789;51.392;10.234;2023-07-16T01:35:34;97724.56;;;19.62;86.35
66880;BME280;53789;51.392;10.234;2023-07-16T01:35:57;97729.31;;;19.62;85.89
66880;BME280;53789;51.392;10.234;2023-07-16T01:36:20;97723.75;;;19.62;86.18
66880;BME280;53789;51.392;10.234;2023-07-16T01:36:43;97718.16;;;19.62;86.15
66880;BME280;53789;51.392;10.234;2023-07-16T01:37:04;97712.59;;;19.62;85.57
66880;BME280;53789;51.392;10.234;2023-07-16T01:37:25;97713.41;;;19.62;85.89
66880;BME280;53789;51.392;10.234;2023-07-16T01:37:45;97702.25;;;19.62;85.62
66880;BME280;53789;51.392;10.234;2023-07-16T01:38:08;97702.63;;;19.61;85.80
66880;BME280;53789;51.392;10.234;2023-07-16T01:38:29;97706.63;;;19.63;85.64
66880;BME280;53789;51.392;10.234;2023-07-16T01:38:49;97711.41;;;19.63;85.27
66880;BME280;53789;51.392;10.234;2023-07-16T01:39:10;97711.81;;;19.65;85.92
66880;BME280;53789;51.392;10.234;2023-07-16T01:39:31;97715.81;;;19.64;86.30
66880;BME280;53789;51.392;10.234;2023-07-16T01:39:52;97713.03;;;19.64;86.46
66880;BME280;53789;51.392;10.234;2023-07-16T01:40:13;97722.63;;;19.66;85.87
66880;BME280;53789;51.392;10.234;2023-07-16T01:40:34;97717.41;;;19.65;86.03
66880;BME280;53789;51.392;10.234;2023-07-16T01:40:54;97728.22;;;19.66;85.88
66880;BME280;53789;51.392;10.234;2023-07-16T01:41:14;97734.13;;;19.65;85.65
66880;BME280;53789;51.392;10.234;2023-07-16T01:41:35;97730.56;;;19.64;86.02
66880;BME280;53789;51.392;10.234;2023-07-16T01:41:55;97744.09;;;19.62;86.11
66880;BME280;53789;51.392;10.234;2023-07-16T01:42:15;97744.47;;;19.61;86.41
66880;BME280;53789;51.392;10.234;2023-07-16T01:42:36;97750.03;;;19.61;85.76
66880;BME280;53789;51.392;10.234;2023-07-16T01:42:56;97752.41;;;19.59;85.95
66880;BME280;53789;51.392;10.234;2023-07-16T01:43:16;97756.34;;;19.58;85.92
66880;BME280;53789;51.392;10.234;2023-07-16T01:43:37;97755.56;;;19.57;85.82
66880;BME280;53789;51.392;10.234;2023-07-16T01:43:57;97760.75;;;19.59;86.35
66880;BME280;53789;51.392;10.234;2023-07-16T01:44:17;97753.16;;;19.56;86.31
66880;BME280;53789;51.392;10.234;2023-07-16T01:44:38;97744.00;;;19.55;86.37
66880;BME280;53789;51.392;10.234;2023-07-16T01:44:58;97753.91;;;19.52;86.27
66880;BME280;53789;51.392;10.234;2023-07-16T01:45:18;97752.75;;;19.53;86.74
66880;BME280;53789;51.392;10.234;2023-07-16T01:45:39;97751.13;;;19.52;86.33
66880;BME280;53789;51.392;10.234;2023-07-16T01:45:59;97759.09;;;19.54;86.20
66880;BME280;53789;51.392;10.234;2023-07-16T01:46:19;97762.28;;;19.52;86.16
66880;BME280;53789;51.392;10.234;2023-07-16T01:46:40;97761.47;;;19.52;85.79
66880;BME280;53789;51.392;10.234;2023-07-16T01:48:33;97747.91;;;19.50;86.22
66880;BME280;53789;51.392;10.234;2023-07-16T01:48:54;97751.50;;;19.51;85.85
66880;BME280;53789;51.392;10.234;2023-07-16T01:49:14;97750.72;;;19.50;86.10
66880;BME280;53789;51.392;10.234;2023-07-16T01:49:34;97756.28;;;19.50;85.98
66880;BME280;53789;51.392;10.234;2023-07-16T01:49:55;97749.50;;;19.51;86.39
66880;BME280;53789;51.392;10.234;2023-07-16T01:50:15;97749.09;;;19.49;85.76
66880;BME280;53789;51.392;10.234;2023-07-16T01:50:36;97755.47;;;19.50;85.87
66880;BME280;53789;51.392;10.234;2023-07-16T01:50:57;97749.47;;;19.48;85.40
66880;BME280;53789;51.392;10.234;2023-07-16T01:51:17;97745.88;;;19.47;85.59
66880;BME280;53789;51.392;10.234;2023-07-16T01:51:37;97745.88;;;19.47;85.79
66880;BME280;53789;51.392;10.234;2023-07-16T01:51:59;97744.28;;;19.46;85.35
66880;BME280;53789;51.392;10.234;2023-07-16T01:52:20;97739.88;;;19.45;85.36
66880;BME280;53789;51.392;10.234;2023-07-16T01:52:40;97736.28;;;19.45;85.79
66880;BME280;53789;51.392;10.234;2023-07-16T01:53:00;97752.19;;;19.44;86.39
66880;BME280;53789;51.392;10.234;2023-07-16T01:53:21;97750.59;;;19.43;86.46
66880;BME280;53789;51.392;10.234;2023-07-16T01:53:41;97750.59;;;19.43;86.75
66880;BME280;53789;51.392;10.234;2023-07-16T01:54:01;97753.41;;;19.43;86.75
66880;BME280;53789;51.392;10.234;2023-07-16T01:54:22;97751.00;;;19.42;86.11
66880;BME280;53789;51.392;10.234;2023-07-16T01:54:42;97767.34;;;19.43;85.51
66880;BME280;53789;51.392;10.234;2023-07-16T01:55:02;97760.94;;;19.43;85.72
66880;BME280;53789;51.392;10.234;2023-07-16T01:55:23;97764.56;;;19.43;85.52
66880;BME280;53789;51.392;10.234;2023-07-16T01:55:43;97767.34;;;19.43;85.74
66880;BME280;53789;51.392;10.234;2023-07-16T01:56:03;97766.97;;;19.45;85.46
66880;BME280;53789;51.392;10.234;2023-07-16T01:56:24;97772.09;;;19.43;85.44
66880;BME280;53789;51.392;10.234;2023-07-16T01:56:44;97772.09;;;19.43;85.47
66880;BME280;53789;51.392;10.234;2023-07-16T01:57:05;97760.53;;;19.41;85.84
66880;BME280;53789;51.392;10.234;2023-07-16T01:57:25;97759.72;;;19.40;85.21
66880;BME280;53789;51.392;10.234;2023-07-16T01:57:46;97761.69;;;19.40;85.23
66880;BME280;53789;51.392;10.234;2023-07-16T01:58:06;97768.09;;;19.40;85.37
66880;BME280;53789;51.392;10.234;2023-07-16T01:58:26;97761.69;;;19.40;85.26